Time;durP1;ratioP1;P1;durP2;ratioP2;P2;SDS_P1;SDS_P2;PMS_P1;PMS_P2;Temp;Humidity;BMP_temperature;BMP_pressure;BME280_temperature;BME280_humidity;BME280_pressure;Samples;Min_cycle;Max_cycle;Signal;HPM_P1;HPM_P2
2022/05/08 00:01:12;;;;;;;10.47;5.23;;;;;;;12.71;73.21;102439.47;6499767;23;20062;-80
2022/05/08 00:03:43;;;;;;;;;;;;;;;12.88;72.42;102437.81;6498065;23;20414;-81
2022/05/08 00:06:15;;;;;;;9.90;4.60;;;;;;;12.77;73.54;102434.28;6498948;23;19919;-84
2022/05/08 00:08:46;;;;;;;9.27;4.83;;;;;;;12.64;73.97;102424.59;6501521;23;20333;-85
2022/05/08 00:11:18;;;;;;;7.23;4.67;;;;;;;12.64;74.25;102430.72;6501381;23;20016;-86
2022/05/08 00:13:49;;;;;;;9.57;4.83;;;;;;;12.60;74.35;102431.56;6525684;22;20008;-81
2022/05/08 00:16:21;;;;;;;12.40;5.40;;;;;;;12.58;74.67;102425.47;6524770;22;20008;-86
2022/05/08 00:18:53;;;;;;;12.83;5.23;;;;;;;12.52;74.96;102423.66;6502255;23;20053;-85
2022/05/08 00:21:24;;;;;;;8.85;5.22;;;;;;;12.61;74.92;102424.63;6524600;22;20173;-83
2022/05/08 00:23:56;;;;;;;9.00;5.00;;;;;;;12.60;74.91;102431.56;6507276;23;20032;-83
2022/05/08 00:26:27;;;;;;;7.13;5.00;;;;;;;12.54;74.96;102431.53;6511933;23;20023;-83
2022/05/08 00:28:58;;;;;;;9.77;5.13;;;;;;;12.48;75.23;102426.28;6512686;23;20000;-80
2022/05/08 00:31:30;;;;;;;10.57;6.43;;;;;;;12.39;75.82;102432.31;6539154;22;20019;-84
2022/05/08 00:34:04;;;;;;;12.77;5.27;;;;;;;12.45;75.94;102423.66;6507861;23;20066;-84
2022/05/08 00:36:39;;;;;;;10.05;6.07;;;;;;;12.45;75.90;102416.66;6529722;22;20008;-85
2022/05/08 00:39:10;;;;;;;10.00;6.07;;;;;;;12.53;75.77;102424.56;6502797;23;20482;-83
2022/05/08 00:41:42;;;;;;;10.27;5.73;;;;;;;12.55;75.86;102425.44;6503079;23;20066;-86
2022/05/08 00:44:13;;;;;;;9.77;5.77;;;;;;;12.50;76.05;102427.16;6501746;23;20015;-83
2022/05/08 00:46:45;;;;;;;10.83;6.77;;;;;;;12.49;76.13;102426.25;6500893;23;20024;-84
2022/05/08 00:49:16;;;;;;;10.30;6.13;;;;;;;12.53;76.16;102428.03;6524645;22;20054;-84
2022/05/08 00:51:49;;;;;;;10.63;6.27;;;;;;;12.49;76.15;102431.50;6502930;23;20441;-85
2022/05/08 00:54:20;;;;;;;9.63;5.95;;;;;;;12.52;76.34;102431.53;6500445;23;20068;-85
2022/05/08 00:56:54;;;;;;;12.20;6.50;;;;;;;12.40;76.50;102432.34;6500794;23;20008;-85
2022/05/08 00:59:25;;;;;;;8.88;5.55;;;;;;;12.40;76.79;102437.56;6500430;23;20176;-81
2022/05/08 01:01:57;;;;;;;18.40;7.03;;;;;;;12.38;76.64;102433.19;6500294;23;20407;-86
2022/05/08 01:04:28;;;;;;;14.90;6.50;;;;;;;12.34;76.91;102439.28;6500559;23;20337;-85
2022/05/08 01:06:59;;;;;;;10.27;5.80;;;;;;;12.38;76.58;102441.91;6500194;23;20012;-83
2022/05/08 01:09:31;;;;;;;11.30;6.30;;;;;;;12.29;76.95;102438.38;6500296;23;20098;-85
2022/05/08 01:12:02;;;;;;;8.93;6.67;;;;;;;12.34;76.75;102437.53;6523786;22;20086;-84
2022/05/08 01:14:34;;;;;;;14.07;7.17;;;;;;;12.24;77.00;102434.84;6499339;23;20064;-84
2022/05/08 01:17:05;;;;;;;10.57;6.50;;;;;;;12.17;77.25;102440.03;6499459;23;20007;-84
2022/05/08 01:19:37;;;;;;;11.13;7.03;;;;;;;12.08;76.90;102441.72;6499531;23;20494;-85
2022/05/08 01:22:08;;;;;;;15.00;7.53;;;;;;;12.02;77.45;102443.38;6499139;23;20082;-83
2022/05/08 01:24:39;;;;;;;14.03;8.03;;;;;;;12.02;77.30;102446.00;6499954;23;20084;-85
2022/05/08 01:27:11;;;;;;;13.53;8.23;;;;;;;12.03;77.43;102442.53;6499552;23;20073;-83
2022/05/08 01:29:42;;;;;;;13.10;7.47;;;;;;;11.99;76.90;102446.00;6499123;23;20015;-84
2022/05/08 01:32:13;;;;;;;12.37;7.90;;;;;;;12.01;76.83;102438.16;6499567;23;20509;-85
2022/05/08 01:34:45;;;;;;;11.00;8.40;;;;;;;11.94;77.23;102433.75;6500383;23;20011;-83
2022/05/08 01:37:16;;;;;;;11.43;7.70;;;;;;;11.96;77.32;102440.75;6524357;22;20008;-82
2022/05/08 01:39:48;;;;;;;11.67;8.07;;;;;;;12.03;77.01;102447.75;6499506;23;20079;-85
2022/05/08 01:42:19;;;;;;;17.40;8.57;;;;;;;11.93;76.95;102450.28;6497136;23;20008;-84
2022/05/08 01:44:51;;;;;;;9.97;8.17;;;;;;;11.95;76.91;102452.06;6500287;23;20042;-82
2022/05/08 01:50:13;;;;;;;11.25;8.15;;;;;;;11.84;77.25;102454.53;6498387;23;20024;-84
2022/05/08 01:52:44;;;;;;;15.87;9.07;;;;;;;11.82;76.98;102455.41;6499239;23;20008;-80
2022/05/08 01:55:15;;;;;;;12.00;8.27;;;;;;;11.81;77.17;102462.34;6498814;23;19996;-82
2022/05/08 01:57:47;;;;;;;12.23;7.73;;;;;;;11.66;77.24;102457.88;6499614;23;20004;-81
2022/05/08 02:00:19;;;;;;;15.53;9.40;;;;;;;11.61;77.53;102456.94;6499433;23;20311;-81
2022/05/08 02:02:51;;;;;;;11.97;9.07;;;;;;;11.55;77.86;102459.50;6498827;23;20039;-84
2022/05/08 02:05:23;;;;;;;;;;;;;;;11.69;76.66;102462.25;6523226;22;19996;-86
2022/05/08 02:07:55;;;;;;;14.93;9.10;;;;;;;11.55;77.26;102456.03;6498847;23;19911;-84
2022/05/08 02:10:27;;;;;;;14.65;9.43;;;;;;;11.45;77.84;102462.88;6499157;23;20007;-84
2022/05/08 02:12:59;;;;;;;13.30;8.82;;;;;;;11.43;78.19;102465.47;6499426;23;20034;-85
2022/05/08 02:15:30;;;;;;;16.13;9.63;;;;;;;11.45;78.29;102468.13;6499280;23;20003;-80
2022/05/08 02:18:04;;;;;;;16.80;9.63;;;;;;;11.42;78.45;102471.56;6498946;23;20004;-86
2022/05/08 02:20:39;;;;;;;15.40;9.52;;;;;;;11.39;78.43;102466.28;6498368;23;20087;-83
2022/05/08 02:23:10;;;;;;;17.67;10.88;;;;;;;11.42;78.66;102463.72;6499371;23;20000;-84
2022/05/08 02:25:42;;;;;;;15.63;9.53;;;;;;;11.31;78.94;102476.66;6499263;23;20520;-83
2022/05/08 02:28:13;;;;;;;10.47;8.63;;;;;;;11.31;79.17;102481.88;6498613;23;20004;-83
2022/05/08 02:30:45;;;;;;;16.17;10.43;;;;;;;11.20;79.33;102474.78;6499353;23;20764;-85
2022/05/08 02:33:17;;;;;;;15.03;9.67;;;;;;;11.17;79.80;102474.75;6500744;23;20008;-81
2022/05/08 02:35:48;;;;;;;14.40;9.55;;;;;;;11.15;80.05;102484.28;6522794;22;20000;-84
2022/05/08 02:38:21;;;;;;;15.53;10.20;;;;;;;11.10;80.58;102486.84;6499023;23;20926;-85
2022/05/08 02:40:52;;;;;;;13.93;10.25;;;;;;;11.04;80.66;102473.72;6523102;22;20441;-80
2022/05/08 02:43:24;;;;;;;15.27;10.97;;;;;;;11.02;80.83;102478.91;6499151;23;20004;-83
2022/05/08 02:45:59;;;;;;;14.47;10.90;;;;;;;11.05;80.58;102480.69;6498887;23;20008;-84
2022/05/08 02:48:31;;;;;;;17.88;9.75;;;;;;;10.91;80.91;102478.78;6497815;23;20016;-83
2022/05/08 02:51:05;;;;;;;19.47;10.10;;;;;;;11.15;80.76;102481.69;6498549;23;20356;-80
2022/05/08 02:53:37;;;;;;;17.20;10.45;;;;;;;11.21;80.37;102487.00;6497183;23;20004;-84
2022/05/08 02:58:58;;;;;;;15.43;9.88;;;;;;;11.10;79.91;102490.31;6497710;23;20008;-85
2022/05/08 03:01:29;;;;;;;12.83;10.20;;;;;;;11.07;79.44;102486.81;6498640;23;20004;-83
2022/05/08 03:04:01;;;;;;;18.00;9.90;;;;;;;10.99;79.32;102485.84;6497666;23;20024;-84
2022/05/08 03:06:32;;;;;;;23.67;11.13;;;;;;;10.97;79.51;102484.94;6497972;23;20003;-84
2022/05/08 03:09:04;;;;;;;15.10;10.63;;;;;;;10.92;79.49;102485.75;6497371;23;20008;-81
2022/05/08 03:11:36;;;;;;;15.83;10.37;;;;;;;10.92;79.58;102484.88;6497063;23;20062;-83
2022/05/08 03:14:08;;;;;;;18.00;10.95;;;;;;;10.86;79.83;102483.06;6496769;23;20004;-82
2022/05/08 03:16:40;;;;;;;15.00;9.93;;;;;;;10.87;79.95;102471.78;6497658;23;20059;-83
2022/05/08 03:19:13;;;;;;;16.90;10.68;;;;;;;10.77;80.07;102482.97;6498250;23;20418;-82
2022/05/08 03:21:48;;;;;;;17.60;10.65;;;;;;;10.76;79.91;102483.81;6497596;23;20092;-81
2022/05/08 03:24:19;;;;;;;18.35;12.18;;;;;;;10.74;79.98;102475.97;6498097;23;20083;-83
2022/05/08 03:26:51;;;;;;;17.83;10.30;;;;;;;10.75;79.18;102471.59;6500018;23;20027;-84
2022/05/08 03:29:26;;;;;;;21.37;10.90;;;;;;;10.71;78.96;102483.72;6512754;23;20004;-84
2022/05/08 03:31:57;;;;;;;20.60;10.70;;;;;;;10.75;78.98;102480.31;6509368;23;20008;-81
2022/05/08 03:34:31;;;;;;;19.67;9.90;;;;;;;10.66;78.94;102480.19;6502911;23;20095;-85
2022/05/08 03:37:04;;;;;;;18.23;10.63;;;;;;;10.79;78.71;102480.34;6502114;23;20006;-85
2022/05/08 03:39:35;;;;;;;;;;;;;;;10.86;77.94;102479.59;6503368;22;20012;-85
2022/05/08 03:42:06;;;;;;;16.05;9.40;;;;;;;10.75;78.11;102487.25;6500279;23;20667;-82
2022/05/08 03:44:39;;;;;;;20.17;9.37;;;;;;;10.64;78.04;102486.22;6506560;23;20013;-82
2022/05/08 03:47:10;;;;;;;22.85;10.55;;;;;;;10.65;77.86;102482.78;6531505;22;20704;-84
2022/05/08 03:49:41;;;;;;;12.90;7.93;;;;;;;10.58;76.86;102481.81;6508674;23;20016;-84
2022/05/08 03:52:14;;;;;;;16.93;8.50;;;;;;;10.57;77.00;102483.53;6508151;23;20429;-84
2022/05/08 03:54:45;;;;;;;;;;;;;;;10.65;76.66;102480.16;6501848;23;20016;-84
2022/05/08 03:57:16;;;;;;;22.43;9.13;;;;;;;10.53;76.72;102486.09;6502050;23;19912;-83
2022/05/08 03:59:48;;;;;;;15.87;8.13;;;;;;;10.52;76.28;102489.53;6501856;23;20239;-84
2022/05/08 04:02:19;;;;;;;18.17;7.37;;;;;;;10.44;76.43;102479.00;6502401;23;20011;-81
2022/05/08 04:04:51;;;;;;;23.13;8.63;;;;;;;10.41;76.61;102489.38;6502597;23;20004;-84
2022/05/08 04:07:22;;;;;;;18.70;7.83;;;;;;;10.49;75.74;102487.75;6503013;23;20027;-84
2022/05/08 04:09:54;;;;;;;19.73;8.83;;;;;;;10.40;75.40;102488.50;6527296;22;20020;-85
2022/05/08 04:12:26;;;;;;;22.80;8.90;;;;;;;10.37;75.36;102496.28;6515020;23;20540;-83
2022/05/08 04:15:04;;;;;;;19.55;7.90;;;;;;;10.37;75.25;102495.41;6515796;23;20008;-84
2022/05/08 04:17:35;;;;;;;26.58;9.18;;;;;;;10.47;74.58;102501.66;6517497;23;20035;-83
2022/05/08 04:20:08;;;;;;;21.40;7.37;;;;;;;10.37;73.89;102501.50;6514676;23;20087;-84
2022/05/08 04:25:30;;;;;;;22.42;7.03;;;;;;;10.36;73.45;102506.69;6504839;23;20035;-83
2022/05/08 04:28:01;;;;;;;23.03;7.50;;;;;;;10.30;73.46;102499.59;6528344;22;20052;-83
2022/05/08 04:30:33;;;;;;;21.27;7.07;;;;;;;10.30;73.36;102502.19;6503062;23;20004;-84
2022/05/08 04:33:04;;;;;;;23.70;7.55;;;;;;;10.21;73.22;102504.69;6501475;23;20004;-85
2022/05/08 04:35:36;;;;;;;21.00;6.70;;;;;;;10.26;72.95;102500.41;6525262;22;20015;-83
2022/05/08 04:38:07;;;;;;;23.37;8.13;;;;;;;10.25;73.37;102505.59;6501260;23;20008;-85
2022/05/08 04:40:41;;;;;;;22.90;7.13;;;;;;;10.17;73.10;102506.34;6524615;22;20087;-85
2022/05/08 04:43:12;;;;;;;26.80;8.15;;;;;;;10.22;72.93;102506.41;6524817;22;20059;-84
2022/05/08 04:45:44;;;;;;;18.57;7.53;;;;;;;10.03;73.25;102507.88;6500591;23;20004;-84
2022/05/08 04:48:16;;;;;;;28.03;7.57;;;;;;;9.97;74.08;102515.56;6500479;23;20004;-85
2022/05/08 04:50:47;;;;;;;22.63;6.55;;;;;;;9.99;74.04;102516.47;6500775;23;20008;-84
2022/05/08 04:53:19;;;;;;;26.47;7.37;;;;;;;10.02;73.98;102530.41;6500412;23;20441;-84
2022/05/08 04:55:50;;;;;;;26.03;8.07;;;;;;;10.04;74.04;102533.03;6500821;23;20058;-85
2022/05/08 04:58:21;;;;;;;24.50;7.63;;;;;;;10.02;73.91;102525.19;6500908;23;20445;-84
2022/05/08 05:00:53;;;;;;;29.63;8.93;;;;;;;10.12;74.06;102530.56;6500103;23;20500;-83
2022/05/08 05:03:25;;;;;;;21.17;6.63;;;;;;;10.10;73.90;102540.97;6523811;22;20065;-83
2022/05/08 05:05:57;;;;;;;28.17;8.13;;;;;;;10.06;73.96;102533.94;6501604;23;20065;-84
2022/05/08 05:08:28;;;;;;;24.90;7.25;;;;;;;10.02;74.24;102535.63;6521534;22;20349;-84
2022/05/08 05:11:00;;;;;;;27.00;7.47;;;;;;;10.04;74.49;102539.13;6500816;23;20174;-85
2022/05/08 05:13:31;;;;;;;21.63;7.23;;;;;;;10.14;74.44;102542.81;6500623;23;20016;-85
2022/05/08 05:16:05;;;;;;;24.20;7.47;;;;;;;10.14;74.11;102550.63;6500332;23;20004;-86
2022/05/08 05:18:36;;;;;;;20.30;7.07;;;;;;;10.13;74.17;102542.78;6500702;23;20088;-83
2022/05/08 05:21:07;;;;;;;28.10;7.47;;;;;;;10.23;74.20;102553.34;6501015;23;20028;-84
2022/05/08 05:23:51;;;;;;;22.10;7.40;;;;;;;10.29;73.95;102552.59;6526411;22;20370;-83
2022/05/08 05:26:23;;;;;;;28.30;7.57;;;;;;;10.21;73.10;102549.00;6526104;22;20008;-85
2022/05/08 05:28:54;;;;;;;32.03;7.07;;;;;;;10.25;73.61;102558.59;6498115;23;20042;-86
2022/05/08 05:31:26;;;;;;;24.47;6.67;;;;;;;10.23;73.31;102563.78;6500319;23;20031;-83
2022/05/08 05:33:57;;;;;;;27.00;7.13;;;;;;;10.28;73.48;102569.06;6501683;23;20070;-86
2022/05/08 05:36:28;;;;;;;25.10;8.13;;;;;;;10.23;72.90;102565.53;6502502;23;20011;-85
2022/05/08 05:39:00;;;;;;;29.33;7.37;;;;;;;10.33;72.55;102571.78;6508758;23;20067;-84
2022/05/08 05:41:33;;;;;;;28.50;6.17;;;;;;;10.53;72.13;102577.34;6518097;23;20041;-87
2022/05/08 05:44:04;;;;;;;23.55;6.05;;;;;;;10.46;72.45;102576.34;6545512;22;20034;-86
2022/05/08 05:49:31;;;;;;;18.63;6.40;;;;;;;10.57;71.27;102587.84;6517723;23;20024;-86
2022/05/08 05:52:05;;;;;;;19.17;5.63;;;;;;;10.57;71.65;102582.63;6540151;22;20019;-85
2022/05/08 05:54:40;;;;;;;21.33;6.43;;;;;;;10.72;70.49;102588.94;6518225;23;20004;-86
2022/05/08 05:57:12;;;;;;;19.40;5.28;;;;;;;10.76;70.12;102590.75;6540240;22;20091;-82
2022/05/08 05:59:43;;;;;;;21.53;6.40;;;;;;;10.85;69.39;102598.72;6537194;22;20030;-83
2022/05/08 06:02:14;;;;;;;24.13;7.93;;;;;;;10.85;68.92;102600.44;6515382;23;20056;-81
2022/05/08 06:04:46;;;;;;;22.10;5.90;;;;;;;10.89;68.74;102597.91;6514001;22;20042;-84
2022/05/08 06:07:17;;;;;;;27.60;6.63;;;;;;;10.98;68.95;102609.31;6522204;22;20019;-84
2022/05/08 06:09:49;;;;;;;20.80;5.77;;;;;;;11.13;68.13;102607.81;6504916;23;20012;-82
2022/05/08 06:12:20;;;;;;;22.20;6.20;;;;;;;11.09;67.90;102608.66;6499665;23;20019;-83
2022/05/08 06:14:52;;;;;;;30.23;7.53;;;;;;;11.14;67.79;102616.53;6501593;23;20529;-84
2022/05/08 06:17:23;;;;;;;23.67;6.43;;;;;;;11.19;67.68;102616.59;6506118;23;20501;-80
2022/05/08 06:19:55;;;;;;;18.87;5.83;;;;;;;11.31;67.05;102611.53;6509641;23;20075;-84
2022/05/08 06:22:26;;;;;;;22.80;7.03;;;;;;;11.42;67.43;102616.91;6507676;23;20008;-84
2022/05/08 06:24:58;;;;;;;22.90;5.40;;;;;;;11.38;66.77;102604.66;6510369;23;20064;-82
2022/05/08 06:27:30;;;;;;;27.00;6.82;;;;;;;11.45;66.09;102619.56;6510229;23;20357;-82
2022/05/08 06:30:01;;;;;;;28.93;6.57;;;;;;;11.60;66.37;102627.59;6497507;23;20071;-82
2022/05/08 06:32:34;;;;;;;19.07;5.87;;;;;;;11.66;65.64;102625.06;6500226;23;20591;-82
2022/05/08 06:35:06;;;;;;;26.98;6.35;;;;;;;11.55;64.11;102631.00;6497944;23;20004;-83
2022/05/08 06:37:37;;;;;;;19.13;4.93;;;;;;;11.77;64.50;102632.13;6498844;23;20406;-85
2022/05/08 06:40:09;;;;;;;24.30;5.27;;;;;;;11.82;63.60;102638.31;6497523;23;20083;-84
2022/05/08 06:42:40;;;;;;;17.53;5.53;;;;;;;11.85;63.79;102631.38;6498670;23;20062;-84
2022/05/08 06:45:12;;;;;;;26.73;6.70;;;;;;;11.91;62.68;102638.41;6499749;23;20008;-83
2022/05/08 06:47:43;;;;;;;17.50;5.77;;;;;;;12.05;63.26;102635.97;6498053;23;20004;-84
2022/05/08 06:50:18;;;;;;;22.57;6.10;;;;;;;11.99;62.10;102634.19;6497869;22;20024;-84
2022/05/08 06:52:51;;;;;;;22.50;5.47;;;;;;;11.96;62.00;102634.16;6496278;22;20019;-85
2022/05/08 06:55:23;;;;;;;21.60;6.15;;;;;;;12.16;62.55;102638.72;6496506;23;20020;-85
2022/05/08 06:57:54;;;;;;;;;;;;;;;12.46;62.04;102635.53;6498305;22;20042;-80
2022/05/08 07:03:18;;;;;;;19.27;4.80;;;;;;;12.00;61.92;102635.91;6497430;23;20342;-85
2022/05/08 07:05:50;;;;;;;20.83;5.60;;;;;;;12.07;62.06;102643.84;6499012;23;20732;-81
2022/05/08 07:08:22;;;;;;;19.13;5.73;;;;;;;11.93;62.80;102638.44;6498998;23;20015;-85
2022/05/08 07:10:54;;;;;;;23.20;5.57;;;;;;;11.78;61.94;102642.59;6497921;23;20000;-83
2022/05/08 07:13:26;;;;;;;20.60;6.47;;;;;;;11.75;62.62;102647.81;6498107;23;20003;-85
2022/05/08 07:15:58;;;;;;;21.60;5.82;;;;;;;11.53;62.67;102640.53;6498162;23;20034;-86
2022/05/08 07:18:29;;;;;;;20.87;5.33;;;;;;;11.59;63.16;102651.06;6499463;23;20111;-84
2022/05/08 07:21:00;;;;;;;21.30;5.57;;;;;;;11.44;62.87;102644.78;6497928;23;20009;-85
2022/05/08 07:23:32;;;;;;;17.63;4.70;;;;;;;11.46;63.47;102653.53;6497323;23;20076;-84
2022/05/08 07:26:03;;;;;;;21.13;6.00;;;;;;;11.38;64.14;102651.66;6497345;23;20032;-81
2022/05/08 07:28:35;;;;;;;19.00;5.97;;;;;;;11.27;64.08;102648.88;6497738;23;20004;-81
2022/05/08 07:31:06;;;;;;;24.07;6.23;;;;;;;11.41;64.49;102659.53;6498249;23;20433;-83
2022/05/08 07:33:38;;;;;;;25.37;6.37;;;;;;;11.67;64.00;102657.25;6500703;23;20310;-79
2022/05/08 07:36:13;;;;;;;23.38;6.97;;;;;;;11.83;63.51;102651.41;6499122;23;20007;-83
2022/05/08 07:38:48;;;;;;;28.00;6.03;;;;;;;12.15;63.70;102652.63;6493293;23;20011;-80
2022/05/08 07:41:19;;;;;;;26.75;7.07;;;;;;;12.23;62.51;102656.19;6496275;22;20303;-84
2022/05/08 07:43:51;;;;;;;22.27;6.10;;;;;;;12.47;61.83;102658.19;6497033;23;20016;-82
2022/05/08 07:46:23;;;;;;;18.13;6.37;;;;;;;12.51;60.66;102659.06;6495237;23;20456;-84
2022/05/08 07:48:54;;;;;;;29.02;5.57;;;;;;;12.58;60.45;102653.06;6497980;23;20060;-79
2022/05/08 07:51:26;;;;;;;18.53;5.40;;;;;;;12.58;60.03;102664.38;6501329;23;20012;-81
2022/05/08 07:53:58;;;;;;;22.13;6.23;;;;;;;12.64;59.85;102663.59;6509689;23;20119;-86
2022/05/08 07:56:29;;;;;;;20.80;6.25;;;;;;;12.85;61.61;102662.00;6502580;23;20020;-79
2022/05/08 07:59:00;;;;;;;24.30;5.97;;;;;;;12.83;60.20;102662.00;6505596;23;20008;-82
2022/05/08 08:01:32;;;;;;;22.13;5.70;;;;;;;12.99;60.33;102669.94;6501063;23;20012;-81
2022/05/08 08:04:08;;;;;;;22.17;6.00;;;;;;;12.96;59.69;102665.59;6506297;23;20054;-79
2022/05/08 08:06:40;;;;;;;24.27;6.78;;;;;;;13.09;59.38;102672.66;6504171;23;20020;-83
2022/05/08 08:09:12;;;;;;;20.15;5.55;;;;;;;13.22;58.94;102671.00;6499793;23;20087;-82
2022/05/08 08:11:43;;;;;;;15.73;5.37;;;;;;;13.38;59.46;102673.72;6499607;23;20027;-81
2022/05/08 08:14:15;;;;;;;23.57;7.07;;;;;;;13.41;57.07;102682.50;6497630;23;20028;-81
2022/05/08 08:16:46;;;;;;;25.50;6.50;;;;;;;13.55;56.54;102676.44;6496738;23;20008;-83
2022/05/08 08:19:18;;;;;;;19.10;5.73;;;;;;;13.42;56.70;102665.03;6497321;23;20054;-84
2022/05/08 08:21:49;;;;;;;23.00;6.07;;;;;;;13.42;56.65;102665.88;6496469;23;20077;-83
2022/05/08 08:24:21;;;;;;;20.43;5.80;;;;;;;13.66;56.89;102677.38;6496597;23;20054;-84
2022/05/08 08:26:52;;;;;;;25.47;6.67;;;;;;;13.75;56.85;102682.66;6496384;23;20410;-81
2022/05/08 08:29:23;;;;;;;19.33;6.07;;;;;;;13.82;56.19;102679.19;6497119;23;20007;-80
2022/05/08 08:31:55;;;;;;;19.13;6.13;;;;;;;14.14;56.41;102683.66;6498501;23;20004;-84
2022/05/08 08:34:26;;;;;;;21.10;6.07;;;;;;;14.22;54.22;102681.94;6497895;23;20040;-83
2022/05/08 08:36:57;;;;;;;21.73;6.13;;;;;;;14.44;55.14;102679.38;6497606;23;20030;-82
2022/05/08 08:39:30;;;;;;;17.87;5.60;;;;;;;14.33;52.54;102679.34;6497581;23;20493;-82
2022/05/08 08:42:06;;;;;;;19.25;6.60;;;;;;;14.32;54.55;102672.34;6497114;23;20012;-81
2022/05/08 08:47:42;;;;;;;26.73;7.22;;;;;;;14.66;54.91;102676.78;6496911;23;20016;-81
2022/05/08 08:50:15;;;;;;;17.58;5.30;;;;;;;14.84;53.31;102678.53;6496706;23;20588;-83
2022/05/08 08:52:50;;;;;;;23.58;6.35;;;;;;;14.84;51.53;102676.78;6496689;23;20028;-82
2022/05/08 08:55:22;;;;;;;18.60;5.75;;;;;;;14.99;51.63;102667.13;6496499;23;20337;-82
2022/05/08 08:57:54;;;;;;;21.90;6.13;;;;;;;14.93;51.22;102681.16;6497210;23;20004;-83
2022/05/08 09:00:25;;;;;;;16.60;5.67;;;;;;;15.00;51.38;102674.16;6497096;23;20086;-83
2022/05/08 09:02:57;;;;;;;19.37;5.97;;;;;;;15.23;51.90;102671.47;6496860;23;20050;-81
2022/05/08 09:05:30;;;;;;;20.17;6.27;;;;;;;15.44;50.06;102676.69;6497234;23;20000;-80
2022/05/08 09:08:01;;;;;;;16.02;4.80;;;;;;;15.32;48.28;102672.31;6497157;23;20015;-80
2022/05/08 09:10:35;;;;;;;18.90;5.13;;;;;;;15.63;49.01;102677.53;6520032;22;20008;-79
2022/05/08 09:13:07;;;;;;;16.73;5.40;;;;;;;15.61;47.19;102673.13;6498355;23;20035;-83
2022/05/08 09:15:39;;;;;;;19.77;5.38;;;;;;;15.56;47.30;102674.91;6497622;23;19999;-81
2022/05/08 09:18:12;;;;;;;16.03;5.60;;;;;;;15.48;46.07;102678.41;6496630;23;20070;-83
2022/05/08 09:20:51;;;;;;;12.48;4.10;;;;;;;15.47;45.49;102681.06;6496565;23;20048;-80
2022/05/08 09:23:23;;;;;;;13.30;4.82;;;;;;;15.52;45.19;102681.94;6497655;23;20742;-81
2022/05/08 09:26:02;;;;;;;17.73;5.00;;;;;;;15.92;46.19;102678.28;6496312;23;20010;-82
2022/05/08 09:28:44;;;;;;;12.43;4.70;;;;;;;15.77;44.68;102681.88;6497121;23;20044;-81
2022/05/08 09:31:16;;;;;;;12.68;4.72;;;;;;;15.99;44.42;102673.00;6496674;23;20027;-82
2022/05/08 09:33:51;;;;;;;16.67;4.88;;;;;;;16.12;45.10;102668.53;6496272;23;20008;-82
2022/05/08 09:36:24;;;;;;;18.20;4.47;;;;;;;16.20;43.35;102669.38;6496397;23;20107;-82
2022/05/08 09:38:56;;;;;;;16.58;4.70;;;;;;;16.41;43.73;102657.81;6496318;23;20027;-81
2022/05/08 09:41:38;;;;;;;14.15;5.00;;;;;;;17.33;44.48;102660.53;6496328;23;20018;-80
2022/05/08 09:44:18;;;;;;;13.90;3.47;;;;;;;18.35;40.01;102662.75;6496161;23;20008;-82
2022/05/08 09:46:49;;;;;;;18.13;4.70;;;;;;;19.55;35.88;102665.03;6520686;22;20004;-82
2022/05/08 09:49:23;;;;;;;13.97;4.80;;;;;;;21.09;32.87;102650.81;6495639;23;20078;-82
2022/05/08 09:51:56;;;;;;;16.02;4.13;;;;;;;22.14;32.21;102668.16;6496844;23;20012;-81
2022/05/08 09:54:29;;;;;;;11.70;3.70;;;;;;;22.66;31.83;102671.78;6520303;22;20452;-81
2022/05/08 09:57:03;;;;;;;15.82;4.57;;;;;;;22.76;31.20;102667.00;6496704;23;20004;-82
2022/05/08 09:59:35;;;;;;;16.30;4.78;;;;;;;23.74;30.51;102661.72;6496545;23;20062;-82
2022/05/08 10:02:12;;;;;;;13.67;4.57;;;;;;;23.88;29.65;102661.22;6496324;23;20008;-81
2022/05/08 10:04:43;;;;;;;13.13;5.50;;;;;;;24.30;28.83;102661.28;6496709;23;20083;-81
2022/05/08 10:07:15;;;;;;;14.45;4.68;;;;;;;24.64;28.74;102661.72;6497453;23;20031;-82
2022/05/08 10:15:31;;;;;;;13.65;5.03;;;;;;;24.68;27.97;102644.63;6496874;23;20039;-80
2022/05/08 10:18:22;;;;;;;15.68;4.45;;;;;;;25.74;29.48;102650.56;6497719;23;20008;-80
2022/05/08 10:21:08;;;;;;;13.88;4.65;;;;;;;25.84;28.36;102649.19;6500141;23;20774;-81
2022/05/08 10:23:45;;;;;;;13.05;4.55;;;;;;;25.92;25.69;102643.50;6496103;23;20430;-82
2022/05/08 10:26:22;;;;;;;10.80;4.03;;;;;;;25.99;25.53;102646.75;6495869;22;20007;-81
2022/05/08 10:29:08;;;;;;;11.65;3.58;;;;;;;26.73;26.57;102645.75;6495801;23;20000;-81
2022/05/08 10:31:54;;;;;;;13.07;4.13;;;;;;;25.95;26.31;102643.34;6495767;23;20015;-81
2022/05/08 10:34:32;;;;;;;11.63;4.00;;;;;;;25.61;26.20;102644.94;6496339;23;20004;-84
2022/05/08 10:37:11;;;;;;;11.57;4.07;;;;;;;25.64;27.03;102643.94;6521730;22;20775;-79
2022/05/08 10:39:44;;;;;;;13.05;4.63;;;;;;;26.82;25.00;102629.22;6496247;23;20012;-83
2022/05/08 10:42:24;;;;;;;12.68;4.00;;;;;;;27.52;25.55;102636.25;6495944;23;20382;-80
2022/05/08 10:44:57;;;;;;;9.85;3.80;;;;;;;27.69;23.07;102630.78;6496207;23;20058;-83
2022/05/08 10:47:37;;;;;;;14.15;4.57;;;;;;;28.18;23.47;102632.50;6496588;23;20023;-78
2022/05/08 10:50:15;;;;;;;11.70;4.47;;;;;;;28.65;23.62;102623.47;6495594;23;20097;-78
2022/05/08 10:52:47;;;;;;;13.00;4.38;;;;;;;28.90;21.74;102622.84;6495969;23;20011;-82
2022/05/08 10:55:19;;;;;;;10.88;3.72;;;;;;;28.55;21.85;102619.59;6496677;23;20004;-84
2022/05/08 10:57:51;;;;;;;;;;;;;;;30.87;21.42;102630.59;6496693;23;20010;-84
2022/05/08 11:00:28;;;;;;;13.27;3.72;;;;;;;28.81;22.92;102623.41;6496843;23;19911;-82
2022/05/08 11:03:01;;;;;;;11.65;4.47;;;;;;;28.83;21.98;102624.16;6499314;23;20001;-84
2022/05/08 11:05:38;;;;;;;13.77;4.32;;;;;;;29.20;21.80;102626.41;6495944;23;20334;-85
2022/05/08 11:08:12;;;;;;;10.65;4.75;;;;;;;29.75;21.52;102624.69;6497381;23;20311;-84
2022/05/08 11:10:43;;;;;;;10.20;3.80;;;;;;;30.25;20.94;102630.38;6497742;23;20098;-85
2022/05/08 11:13:17;;;;;;;;;;;;;;;32.07;19.49;102626.44;6521580;22;20008;-82
2022/05/08 11:15:49;;;;;;;11.32;4.20;;;;;;;29.65;20.70;102627.97;6496138;23;19969;-85
2022/05/08 11:18:24;;;;;;;11.32;4.68;;;;;;;29.13;21.24;102627.75;6497334;23;20053;-85
2022/05/08 11:20:59;;;;;;;15.88;4.25;;;;;;;29.45;20.99;102620.34;6498623;23;20079;-85
2022/05/08 11:23:33;;;;;;;10.57;4.85;;;;;;;29.98;20.61;102617.84;6521180;22;20062;-81
2022/05/08 11:26:06;;;;;;;11.32;4.22;;;;;;;30.42;19.56;102619.34;6497119;23;19996;-85
2022/05/08 11:28:57;;;;;;;11.70;4.20;;;;;;;30.61;21.05;102618.97;6501231;23;20015;-83
2022/05/08 11:31:32;;;;;;;15.20;4.88;;;;;;;30.44;19.56;102611.19;6499266;23;20035;-83
2022/05/08 11:37:04;;;;;;;9.93;3.53;;;;;;;31.06;19.60;102603.25;6503809;23;20361;-80
2022/05/08 11:39:36;;;;;;;11.10;3.55;;;;;;;31.43;18.16;102610.50;6502705;23;20015;-82
2022/05/08 11:42:07;;;;;;;13.50;4.35;;;;;;;31.23;18.09;102602.00;6500662;23;20082;-83
2022/05/08 11:44:38;;;;;;;11.82;4.22;;;;;;;30.92;19.30;102596.13;6505782;23;20091;-83
2022/05/08 11:47:10;;;;;;;8.98;3.47;;;;;;;31.56;19.62;102599.72;6502006;23;19996;-84
2022/05/08 11:49:44;;;;;;;19.50;4.13;;;;;;;31.27;19.09;102600.84;6500102;23;20016;-83
2022/05/08 11:52:22;;;;;;;10.40;4.20;;;;;;;31.40;18.90;102599.94;6500089;23;20004;-83
2022/05/08 11:55:01;;;;;;;10.02;4.00;;;;;;;31.87;19.87;102595.56;6497454;23;20035;-83
2022/05/08 11:57:41;;;;;;;11.27;4.60;;;;;;;31.98;18.63;102592.94;6496018;23;20688;-82
2022/05/08 12:00:14;;;;;;;14.27;4.43;;;;;;;31.79;18.86;102584.50;6497200;23;20727;-84
2022/05/08 12:02:47;;;;;;;10.75;4.50;;;;;;;32.50;17.80;102588.06;6498003;23;20093;-81
2022/05/08 12:05:21;;;;;;;10.45;3.80;;;;;;;33.14;16.98;102573.16;6499949;23;20086;-83
2022/05/08 12:07:53;;;;;;;11.20;3.50;;;;;;;32.92;18.00;102576.72;6499927;23;20008;-82
2022/05/08 12:10:38;;;;;;;10.70;3.97;;;;;;;32.43;18.39;102569.81;6501767;23;20085;-82